Collinsville, Virginia
Current Conditions -  °F | °C
As of 2:55 PM on Thursday 18 Dec 2014 (Local Time) from KMTV Reporting Station
Overcast Overcast  
Wind Chill: 43°   Ceiling: 8000
Heat Index: 43°   Visibility: 10mi
Dew Point: 24°   Wind: 3mph
Humidity: 46%   Direction: 280°W
Pressure: 30.11"   Gusts: NA
Location:  36.72°N, 79.91°W
Report Text: KMTV 181955Z AUTO 28003KT 10SM OVC080 06/M05 A3011 RMK AO2 T00631047
Loading
Personal Weather Stations






























Interactive Weather Map New forecast layout! Learn more

10-Day Weather Forecast

Advertisements
Track Severe Weather on mobile